createdAt,value
2022-10-18T00:01:58.413Z,102510.84
2022-10-18T00:04:33.777Z,102514.50
2022-10-18T00:07:04.155Z,102521.00
2022-10-18T00:09:30.987Z,102504.16
2022-10-18T00:11:57.808Z,102482.41
2022-10-18T00:14:24.760Z,102483.09
2022-10-18T00:17:35.160Z,102500.50
2022-10-18T00:20:04.384Z,102454.50
2022-10-18T00:22:31.756Z,102503.03
2022-10-18T00:24:58.669Z,102489.31
2022-10-18T00:27:25.957Z,102501.22
2022-10-18T00:29:53.505Z,102503.19
2022-10-18T00:32:22.223Z,102485.22
2022-10-18T00:34:49.071Z,102500.78
2022-10-18T00:37:21.958Z,102486.22
2022-10-18T00:39:48.611Z,102479.28
2022-10-18T00:42:32.284Z,102425.78
2022-10-18T00:45:15.313Z,102492.88
2022-10-18T00:47:45.830Z,102486.78
2022-10-18T00:50:17.442Z,102481.97
2022-10-18T00:52:52.501Z,102465.41
2022-10-18T00:55:22.679Z,102461.56
2022-10-18T00:57:52.615Z,102469.38
2022-10-18T01:00:19.692Z,102443.34
2022-10-18T01:02:47.515Z,102472.50
2022-10-18T01:05:16.467Z,102476.16
2022-10-18T01:08:06.338Z,102442.22
2022-10-18T01:10:49.997Z,102376.69
2022-10-18T01:14:11.132Z,102464.84
2022-10-18T01:16:57.745Z,102442.75
2022-10-18T01:19:43.223Z,102465.13
2022-10-18T01:22:21.944Z,102455.22
2022-10-18T01:25:03.938Z,102459.75
2022-10-18T01:27:41.707Z,102457.50
2022-10-18T01:30:44.580Z,102456.78
2022-10-18T01:33:15.673Z,102417.59
2022-10-18T01:35:49.351Z,102410.25
2022-10-18T01:38:19.072Z,102379.53
2022-10-18T01:40:49.677Z,102440.06
2022-10-18T01:43:18.562Z,102451.53
2022-10-18T01:45:46.662Z,102392.78
2022-10-18T01:48:17.552Z,102448.00
2022-10-18T01:50:44.723Z,102424.41
2022-10-18T01:53:35.648Z,102424.66
2022-10-18T01:56:02.456Z,102381.19
2022-10-18T01:58:37.458Z,102424.66
2022-10-18T02:01:20.763Z,102443.63
2022-10-18T02:03:55.434Z,102444.06
2022-10-18T02:06:29.400Z,102398.03
2022-10-18T02:09:16.140Z,102447.28
2022-10-18T02:11:45.085Z,102444.88
2022-10-18T02:14:14.225Z,102330.41
2022-10-18T02:16:54.727Z,102441.06
2022-10-18T02:19:38.993Z,102406.50
2022-10-18T02:22:09.136Z,102403.94
2022-10-18T02:24:39.562Z,102418.91
2022-10-18T02:27:09.017Z,102430.38
2022-10-18T02:29:37.956Z,102442.69
2022-10-18T02:32:26.469Z,102437.31
2022-10-18T02:35:16.824Z,102406.91
2022-10-18T02:37:46.952Z,102429.84
2022-10-18T02:40:14.332Z,102399.25
2022-10-18T02:42:55.187Z,102431.09
2022-10-18T02:45:22.323Z,102434.78
2022-10-18T02:47:49.224Z,102434.78
2022-10-18T02:50:16.055Z,102421.78
2022-10-18T02:52:42.954Z,102424.06
2022-10-18T02:55:10.929Z,102399.13
2022-10-18T02:57:38.013Z,102407.63
2022-10-18T03:00:06.221Z,102428.28
2022-10-18T03:02:38.316Z,102378.44
2022-10-18T03:05:08.222Z,102433.06
2022-10-18T03:07:35.253Z,102432.78
2022-10-18T03:10:02.240Z,102430.78
2022-10-18T03:12:31.581Z,102425.41
2022-10-18T03:15:01.533Z,102403.88
2022-10-18T03:17:34.143Z,102412.13
2022-10-18T03:20:01.246Z,102431.91
2022-10-18T03:24:57.829Z,102434.19
2022-10-18T03:27:24.672Z,102432.22
2022-10-18T03:29:51.654Z,102416.38
2022-10-18T03:32:19.561Z,102392.63
2022-10-18T03:34:46.560Z,102409.03
2022-10-18T03:37:13.269Z,102408.16
2022-10-18T03:39:39.837Z,102429.97
2022-10-18T03:42:06.533Z,102426.97
2022-10-18T03:44:33.090Z,102408.44
2022-10-18T03:46:59.669Z,102430.53
2022-10-18T03:49:26.441Z,102435.03
2022-10-18T03:51:53.040Z,102428.09
2022-10-18T03:54:19.930Z,102407.59
2022-10-18T03:56:46.786Z,102412.84
2022-10-18T03:59:13.749Z,102376.47
2022-10-18T04:01:40.353Z,102382.34
2022-10-18T04:04:06.976Z,102384.59
2022-10-18T04:06:33.582Z,102298.28
2022-10-18T04:09:00.358Z,102375.16
2022-10-18T04:11:27.065Z,102390.97
2022-10-18T04:13:56.863Z,102374.97
2022-10-18T04:16:23.534Z,102428.75
2022-10-18T04:18:50.233Z,102420.69
2022-10-18T04:21:20.130Z,102422.53
2022-10-18T04:23:50.807Z,102402.03
2022-10-18T04:26:17.670Z,102385.88
2022-10-18T04:28:44.660Z,102406.97
2022-10-18T04:31:12.139Z,102360.13
2022-10-18T04:33:42.290Z,102362.53
2022-10-18T04:36:12.132Z,102412.91
2022-10-18T04:38:38.952Z,102376.97
2022-10-18T04:41:05.631Z,102410.34
2022-10-18T04:43:32.865Z,102362.81
2022-10-18T04:45:59.593Z,102408.38
2022-10-18T04:48:27.010Z,102369.34
2022-10-18T04:50:53.851Z,102400.63
2022-10-18T04:53:20.667Z,102409.38
2022-10-18T04:55:51.104Z,102371.44
2022-10-18T04:58:18.927Z,102409.91
2022-10-18T05:00:49.477Z,102404.53
2022-10-18T05:03:19.203Z,102377.94
2022-10-18T05:06:02.717Z,102401.16
2022-10-18T05:08:30.826Z,102391.69
2022-10-18T05:10:57.868Z,102380.97
2022-10-18T05:13:25.092Z,102321.16
2022-10-18T05:15:53.891Z,102294.00
2022-10-18T05:18:20.576Z,102401.88
2022-10-18T05:20:47.535Z,102340.53
2022-10-18T05:23:16.195Z,102406.94
2022-10-18T05:25:43.648Z,102406.06
2022-10-18T05:28:15.683Z,102365.91
2022-10-18T05:30:54.402Z,102398.75
2022-10-18T05:33:23.609Z,102389.72
2022-10-18T05:35:52.146Z,102396.78
2022-10-18T05:38:18.735Z,102398.94
2022-10-18T05:40:45.418Z,102365.06
2022-10-18T05:43:11.985Z,102377.13
2022-10-18T05:45:38.916Z,102386.31
2022-10-18T05:48:07.659Z,102387.47
2022-10-18T05:50:40.393Z,102403.25
2022-10-18T05:53:12.332Z,102411.00
2022-10-18T05:55:45.156Z,102391.34
2022-10-18T05:58:14.447Z,102310.09
2022-10-18T06:00:43.837Z,102408.22
2022-10-18T06:03:11.134Z,102363.91
2022-10-18T06:08:07.991Z,102401.88
2022-10-18T06:10:40.401Z,102298.28
2022-10-18T06:13:07.103Z,102414.06
2022-10-18T06:15:33.865Z,102412.94
2022-10-18T06:18:00.810Z,102421.72
2022-10-18T06:20:27.543Z,102416.91
2022-10-18T06:22:55.804Z,102405.44
2022-10-18T06:25:22.471Z,102390.75
2022-10-18T06:27:51.428Z,102397.56
2022-10-18T06:30:21.291Z,102418.91
2022-10-18T06:32:54.014Z,102341.25
2022-10-18T06:35:23.576Z,102427.44
2022-10-18T06:37:50.233Z,102435.34
2022-10-18T06:40:17.146Z,102410.44
2022-10-18T06:42:55.189Z,102405.38
2022-10-18T06:45:28.887Z,102437.38
2022-10-18T06:47:55.446Z,102430.03
2022-10-18T06:50:22.121Z,102414.56
2022-10-18T06:52:55.449Z,102368.03
2022-10-18T06:55:22.301Z,102444.59
2022-10-18T06:57:49.105Z,102440.66
2022-10-18T07:00:16.112Z,102440.22
2022-10-18T07:02:42.789Z,102427.22
2022-10-18T07:05:10.465Z,102226.13
2022-10-18T07:07:37.966Z,102429.78
2022-10-18T07:10:05.466Z,102441.38
2022-10-18T07:12:35.581Z,102447.28
2022-10-18T07:15:08.254Z,102449.25
2022-10-18T07:17:36.210Z,102438.81
2022-10-18T07:20:07.089Z,102397.94
2022-10-18T07:22:34.358Z,102406.00
2022-10-18T07:25:03.781Z,102447.66
2022-10-18T07:27:31.137Z,102433.38
2022-10-18T07:30:01.556Z,102451.78
2022-10-18T07:32:28.927Z,102443.28
2022-10-18T07:34:56.386Z,102446.41
2022-10-18T07:37:26.621Z,102425.56
2022-10-18T07:39:56.719Z,102432.91
2022-10-18T07:42:23.669Z,102439.53
2022-10-18T07:44:51.689Z,102431.59
2022-10-18T07:47:22.332Z,102460.13
2022-10-18T07:49:49.588Z,102455.31
2022-10-18T07:52:16.380Z,102453.53
2022-10-18T07:54:45.823Z,102441.69
2022-10-18T07:57:12.605Z,102413.66
2022-10-18T07:59:39.613Z,102411.84
2022-10-18T08:02:06.942Z,102444.72
2022-10-18T08:04:35.031Z,102416.16
2022-10-18T08:07:02.820Z,102469.13
2022-10-18T08:09:29.662Z,102459.66
2022-10-18T08:11:56.542Z,102425.59
2022-10-18T08:14:23.854Z,102464.16
2022-10-18T08:16:50.527Z,102451.84
2022-10-18T08:19:17.367Z,102453.59
2022-10-18T08:21:44.286Z,102453.47
2022-10-18T08:24:13.884Z,102386.63
2022-10-18T08:26:43.398Z,102432.50
2022-10-18T08:29:22.495Z,102467.25
2022-10-18T08:31:51.297Z,102455.69
2022-10-18T08:34:21.188Z,102416.97
2022-10-18T08:36:47.941Z,102405.94
2022-10-18T08:39:16.551Z,102436.09
2022-10-18T08:41:56.548Z,102451.97
2022-10-18T08:44:26.931Z,102455.34
2022-10-18T08:47:04.272Z,102425.78
2022-10-18T08:49:56.492Z,102430.38
2022-10-18T08:52:26.666Z,102438.69
2022-10-18T08:54:58.290Z,102449.34
2022-10-18T08:57:25.295Z,102397.72
2022-10-18T08:59:52.085Z,102444.63
2022-10-18T09:02:51.003Z,102369.81
2022-10-18T09:05:44.702Z,102426.38
2022-10-18T09:08:30.228Z,102444.53
2022-10-18T09:11:07.365Z,102435.97
2022-10-18T09:13:53.081Z,102431.28
2022-10-18T09:16:58.097Z,102427.97
2022-10-18T09:19:44.976Z,102431.75
2022-10-18T09:22:19.258Z,102420.59
2022-10-18T09:25:35.844Z,102388.00
2022-10-18T09:28:25.580Z,102262.91
2022-10-18T09:31:11.341Z,102391.41
2022-10-18T09:33:56.551Z,102416.28
2022-10-18T09:36:27.100Z,102421.00
2022-10-18T09:39:01.875Z,102355.41
2022-10-18T09:41:41.314Z,102417.41
2022-10-18T09:44:17.995Z,102412.50
2022-10-18T09:46:52.612Z,102399.97
2022-10-18T09:49:38.366Z,102394.22
2022-10-18T09:52:09.320Z,102385.53
2022-10-18T09:54:57.802Z,102387.03
2022-10-18T09:57:28.588Z,102401.13
2022-10-18T09:59:57.929Z,102362.34
2022-10-18T10:02:24.691Z,102390.31
2022-10-18T10:04:55.777Z,102363.56
2022-10-18T10:07:35.145Z,102395.91
2022-10-18T10:10:14.254Z,102338.78
2022-10-18T10:12:46.365Z,102372.44
2022-10-18T10:15:28.298Z,102318.31
2022-10-18T10:18:02.903Z,102385.72
2022-10-18T10:20:32.866Z,102384.34
2022-10-18T10:23:16.632Z,102341.75
2022-10-18T10:25:43.651Z,102381.78
2022-10-18T10:28:16.894Z,102343.00
2022-10-18T10:30:43.623Z,102365.72
2022-10-18T10:33:36.401Z,102376.22
2022-10-18T10:36:07.270Z,102365.66
2022-10-18T10:38:34.343Z,102301.09
2022-10-18T10:41:01.253Z,102358.88
2022-10-18T10:43:40.097Z,102358.88
2022-10-18T10:46:20.429Z,102337.44
2022-10-18T10:48:57.229Z,102295.88
2022-10-18T10:51:33.002Z,102351.34
2022-10-18T10:54:15.172Z,102345.00
2022-10-18T10:57:02.906Z,102280.97
2022-10-18T10:59:48.653Z,102235.41
2022-10-18T11:02:18.259Z,102338.63
2022-10-18T11:04:48.687Z,102221.38
2022-10-18T11:07:39.725Z,102315.94
2022-10-18T11:10:11.251Z,102318.72
2022-10-18T11:12:46.947Z,102316.56
2022-10-18T11:15:31.652Z,102316.50
2022-10-18T11:18:14.731Z,102254.13
2022-10-18T11:20:43.261Z,102299.31
2022-10-18T11:23:20.341Z,102240.66
2022-10-18T11:26:12.147Z,102277.34
2022-10-18T11:29:00.028Z,102295.13
2022-10-18T11:32:04.438Z,102246.97
2022-10-18T11:35:30.551Z,102283.69
2022-10-18T11:38:52.970Z,102273.22
2022-10-18T11:41:31.533Z,102266.47
2022-10-18T11:44:03.107Z,102263.75
2022-10-18T11:46:57.367Z,102235.31
2022-10-18T11:49:29.986Z,102249.06
2022-10-18T11:52:14.626Z,102244.75
2022-10-18T11:54:59.999Z,102243.09
2022-10-18T11:57:43.427Z,102225.50
2022-10-18T12:00:44.968Z,102230.53
2022-10-18T12:03:22.355Z,102181.66
2022-10-18T12:05:51.381Z,102225.88
2022-10-18T12:08:23.998Z,102222.97
2022-10-18T12:11:04.947Z,102197.03
2022-10-18T12:13:45.371Z,102123.22
2022-10-18T12:16:15.049Z,102211.72
2022-10-18T12:18:55.762Z,102199.31
2022-10-18T12:21:29.713Z,102169.09
2022-10-18T12:24:11.162Z,102179.19
2022-10-18T12:26:39.817Z,102181.06
2022-10-18T12:29:22.361Z,102088.16
2022-10-18T12:31:57.605Z,102183.69
2022-10-18T12:34:36.290Z,102155.16
2022-10-18T12:37:35.178Z,102144.69
2022-10-18T12:40:25.875Z,102056.47
2022-10-18T12:42:53.755Z,102144.78
2022-10-18T12:45:35.749Z,102151.50
2022-10-18T12:48:06.689Z,102111.00
2022-10-18T12:50:42.973Z,102144.13
2022-10-18T12:53:09.763Z,102142.06
2022-10-18T12:56:01.834Z,102139.63
2022-10-18T12:58:31.757Z,102134.94
2022-10-18T13:01:02.407Z,102127.47
2022-10-18T13:03:48.311Z,102083.81
2022-10-18T13:06:22.164Z,102120.16
2022-10-18T13:09:11.594Z,102129.72
2022-10-18T13:11:38.645Z,102092.22
2022-10-18T13:14:17.623Z,102114.38
2022-10-18T13:17:29.988Z,102117.38
2022-10-18T13:20:26.420Z,102050.13
2022-10-18T13:22:59.567Z,102109.88
2022-10-18T13:25:49.608Z,102047.06
2022-10-18T13:28:39.434Z,102054.69
2022-10-18T13:31:35.407Z,102094.25
2022-10-18T13:34:25.227Z,102087.72
2022-10-18T13:37:10.756Z,102091.00
2022-10-18T13:39:44.397Z,102083.44
2022-10-18T13:42:33.154Z,102023.41
2022-10-18T13:45:32.691Z,102089.34
2022-10-18T13:48:55.667Z,102065.00
2022-10-18T13:51:41.680Z,102080.16
2022-10-18T13:54:40.043Z,102024.16
2022-10-18T13:57:36.262Z,102088.03
2022-10-18T14:00:02.989Z,102068.78
2022-10-18T14:02:58.701Z,102082.59
2022-10-18T14:06:04.879Z,102077.19
2022-10-18T14:08:41.769Z,102065.25
2022-10-18T14:11:30.098Z,102058.84
2022-10-18T14:14:39.180Z,102057.81
2022-10-18T14:17:37.122Z,102068.88
2022-10-18T14:20:29.945Z,102048.66
2022-10-18T14:23:00.226Z,102066.16
2022-10-18T14:25:34.033Z,102047.63
2022-10-18T14:28:08.854Z,102039.47
2022-10-18T14:30:58.104Z,102050.31
2022-10-18T14:33:34.484Z,101991.66
2022-10-18T14:36:15.800Z,102062.84
2022-10-18T14:38:45.795Z,102064.47
2022-10-18T14:41:20.917Z,102011.91
2022-10-18T14:43:48.520Z,101958.00
2022-10-18T14:46:31.910Z,102057.41
2022-10-18T14:49:01.132Z,102036.59
2022-10-18T14:51:33.237Z,102042.59
2022-10-18T14:54:01.559Z,102035.84
2022-10-18T14:56:36.763Z,102017.31
2022-10-18T14:59:10.866Z,102041.16
2022-10-18T15:01:39.813Z,102005.38
2022-10-18T15:04:12.136Z,101948.28
2022-10-18T15:06:44.190Z,102036.22
2022-10-18T15:09:13.147Z,101878.22
2022-10-18T15:11:47.404Z,102024.63
2022-10-18T15:14:19.127Z,102027.06
2022-10-18T15:16:47.438Z,101991.28
2022-10-18T15:19:14.138Z,101887.00
2022-10-18T15:22:31.394Z,101957.97
2022-10-18T15:25:16.645Z,102035.28
2022-10-18T15:27:46.504Z,101896.50
2022-10-18T15:30:36.262Z,101988.19
2022-10-18T15:33:09.846Z,102017.50
2022-10-18T15:35:38.865Z,101991.91
2022-10-18T15:38:27.792Z,102015.19
2022-10-18T15:40:57.080Z,101984.91
2022-10-18T15:43:26.787Z,102022.09
2022-10-18T15:45:58.835Z,102020.59
2022-10-18T15:48:33.725Z,102015.28
2022-10-18T15:51:04.775Z,102022.56
2022-10-18T15:53:44.053Z,101914.59
2022-10-18T15:56:30.866Z,102012.63
2022-10-18T15:59:04.269Z,102015.53
2022-10-18T16:01:43.200Z,101801.09
2022-10-18T16:04:31.164Z,101958.53
2022-10-18T16:07:01.378Z,101978.28
2022-10-18T16:09:34.312Z,102025.28
2022-10-18T16:12:04.337Z,102002.38
2022-10-18T16:14:31.864Z,101979.84
2022-10-18T16:17:01.581Z,102000.88
2022-10-18T16:19:32.677Z,101926.69
2022-10-18T16:22:06.599Z,102010.03
2022-10-18T16:24:33.772Z,101896.94
2022-10-18T16:27:01.248Z,101873.09
2022-10-18T16:29:34.676Z,101979.84
2022-10-18T16:32:07.899Z,102009.31
2022-10-18T16:34:37.621Z,102023.88
2022-10-18T16:37:04.167Z,101957.00
2022-10-18T16:39:35.093Z,102010.09
2022-10-18T16:42:02.056Z,101924.88
2022-10-18T16:44:28.932Z,101907.63
2022-10-18T16:46:56.873Z,102023.97
2022-10-18T16:49:26.446Z,101936.75
2022-10-18T16:51:55.099Z,101999.06
2022-10-18T16:54:23.900Z,102002.13
2022-10-18T16:56:51.884Z,102025.78
2022-10-18T16:59:26.555Z,102014.19
2022-10-18T17:02:06.499Z,102002.91
2022-10-18T17:04:34.481Z,101991.50
2022-10-18T17:07:03.674Z,102030.53
2022-10-18T17:09:35.393Z,102033.41
2022-10-18T17:12:07.370Z,102016.94
2022-10-18T17:14:37.237Z,101993.53
2022-10-18T17:17:03.931Z,102004.16
2022-10-18T17:19:32.836Z,102038.94
2022-10-18T17:22:02.691Z,101982.16
2022-10-18T17:24:29.691Z,102031.38
2022-10-18T17:26:56.471Z,101999.03
2022-10-18T17:29:23.070Z,101926.94
2022-10-18T17:31:49.726Z,102027.69
2022-10-18T17:34:26.877Z,102016.97
2022-10-18T17:36:54.372Z,102055.41
2022-10-18T17:39:21.031Z,102043.25
2022-10-18T17:41:48.062Z,102020.34
2022-10-18T17:44:15.377Z,102032.50
2022-10-18T17:46:44.539Z,102032.81
2022-10-18T17:49:16.025Z,101990.00
2022-10-18T17:51:45.554Z,102043.97
2022-10-18T17:54:12.852Z,102040.94
2022-10-18T17:56:40.864Z,101971.84
2022-10-18T17:59:13.549Z,102018.00
2022-10-18T18:01:41.190Z,102039.44
2022-10-18T18:04:10.878Z,101879.47
2022-10-18T18:06:39.283Z,102002.53
2022-10-18T18:09:11.350Z,102048.38
2022-10-18T18:11:41.199Z,101957.38
2022-10-18T18:14:09.178Z,102029.53
2022-10-18T18:16:41.453Z,101974.25
2022-10-18T18:19:13.795Z,101839.91
2022-10-18T18:21:41.700Z,102051.47
2022-10-18T18:24:15.164Z,102009.63
2022-10-18T18:26:43.740Z,102052.31
2022-10-18T18:29:13.152Z,102006.94
2022-10-18T18:31:43.691Z,102046.75
2022-10-18T18:34:10.944Z,102048.78
2022-10-18T18:36:38.589Z,102005.78
2022-10-18T18:39:10.378Z,102045.75
2022-10-18T18:41:38.677Z,102048.59
2022-10-18T18:44:07.002Z,102019.94
2022-10-18T18:46:38.991Z,102037.66
2022-10-18T18:49:08.881Z,102044.72
2022-10-18T18:51:40.730Z,102037.81
2022-10-18T18:54:12.419Z,101977.59
2022-10-18T18:56:41.768Z,102015.06
2022-10-18T18:59:08.828Z,102042.88
2022-10-18T19:01:38.202Z,102014.03
2022-10-18T19:04:06.687Z,102046.09
2022-10-18T19:06:39.816Z,102044.41
2022-10-18T19:09:13.054Z,102011.66
2022-10-18T19:11:40.352Z,102039.66
2022-10-18T19:14:08.761Z,101965.78
2022-10-18T19:16:40.998Z,102035.28
2022-10-18T19:19:16.629Z,101989.91
2022-10-18T19:21:46.905Z,102036.09
2022-10-18T19:24:14.502Z,102041.13
2022-10-18T19:26:48.976Z,102023.25
2022-10-18T19:29:19.067Z,102049.22
2022-10-18T19:31:46.321Z,102000.44
2022-10-18T19:34:16.241Z,102051.03
2022-10-18T19:36:48.430Z,102038.88
2022-10-18T19:39:24.576Z,102037.72
2022-10-18T19:41:55.365Z,102042.94
2022-10-18T19:44:27.446Z,102050.34
2022-10-18T19:46:55.475Z,101972.72
2022-10-18T19:49:24.444Z,102025.88
2022-10-18T19:51:57.619Z,102039.88
2022-10-18T19:54:27.177Z,102042.53
2022-10-18T19:56:56.837Z,102033.75
2022-10-18T19:59:27.054Z,101934.97
2022-10-18T20:01:54.229Z,102042.34
2022-10-18T20:04:22.222Z,102043.59
2022-10-18T20:06:50.217Z,102048.28
2022-10-18T20:09:20.625Z,101911.69
2022-10-18T20:11:51.872Z,102034.25
2022-10-18T20:14:19.231Z,102057.50
2022-10-18T20:16:50.075Z,102053.59
2022-10-18T20:19:17.454Z,102057.00
2022-10-18T20:21:44.946Z,102057.00
2022-10-18T20:24:15.491Z,102009.69
2022-10-18T20:26:43.849Z,102032.72
2022-10-18T20:29:11.213Z,102018.94
2022-10-18T20:31:39.728Z,102039.56
2022-10-18T20:34:11.665Z,102065.69
2022-10-18T20:36:39.413Z,101994.41
2022-10-18T20:39:08.030Z,102038.47
2022-10-18T20:41:39.957Z,102061.59
2022-10-18T20:44:10.800Z,102060.28
2022-10-18T20:46:38.848Z,101989.50
2022-10-18T20:49:07.716Z,101961.47
2022-10-18T20:51:35.196Z,102038.50
2022-10-18T20:56:39.022Z,102027.34
2022-10-18T20:59:10.209Z,102017.00
2022-10-18T21:01:45.328Z,101935.34
2022-10-18T21:04:12.144Z,102040.63
2022-10-18T21:06:41.513Z,102006.72
2022-10-18T21:09:14.809Z,101959.94
2022-10-18T21:11:48.216Z,102034.06
2022-10-18T21:14:23.582Z,101970.78
2022-10-18T21:16:51.989Z,101953.88
2022-10-18T21:19:20.427Z,102027.50
2022-10-18T21:21:50.584Z,102037.28
2022-10-18T21:24:21.446Z,102025.38
2022-10-18T21:26:49.202Z,102009.81
2022-10-18T21:29:21.627Z,102051.22
2022-10-18T21:31:49.401Z,102024.34
2022-10-18T21:34:17.960Z,101973.53
2022-10-18T21:36:47.786Z,102016.06
2022-10-18T21:39:19.725Z,102036.34
2022-10-18T21:41:53.452Z,101987.66
2022-10-18T21:44:24.549Z,101908.59
2022-10-18T21:46:56.396Z,101793.97
2022-10-18T21:49:26.115Z,102034.75
2022-10-18T21:52:03.580Z,102033.75
2022-10-18T21:54:32.464Z,102022.28
2022-10-18T21:57:01.667Z,102025.69
2022-10-18T21:59:34.393Z,102018.91
2022-10-18T22:02:04.412Z,102023.28
2022-10-18T22:04:36.195Z,101978.72
2022-10-18T22:07:06.889Z,101966.50
2022-10-18T22:09:41.814Z,102015.78
2022-10-18T22:12:10.854Z,101957.19
2022-10-18T22:14:42.250Z,102015.16
2022-10-18T22:17:08.945Z,102014.16
2022-10-18T22:19:42.826Z,101971.56
2022-10-18T22:22:13.269Z,101988.81
2022-10-18T22:24:40.039Z,102002.88
2022-10-18T22:27:09.315Z,102000.31
2022-10-18T22:29:37.259Z,101990.22
2022-10-18T22:32:04.206Z,101997.59
2022-10-18T22:34:31.070Z,101995.03
2022-10-18T22:36:57.677Z,101961.72
2022-10-18T22:39:24.699Z,101990.59
2022-10-18T22:41:56.025Z,101978.97
2022-10-18T22:44:22.955Z,101945.00
2022-10-18T22:46:49.747Z,101993.28
2022-10-18T22:49:20.275Z,101977.94
2022-10-18T22:51:47.122Z,101964.75
2022-10-18T22:54:15.799Z,101995.47
2022-10-18T22:56:45.715Z,101954.28
2022-10-18T22:59:12.427Z,101898.88
2022-10-18T23:01:39.381Z,101991.09
2022-10-18T23:04:06.365Z,101922.13
2022-10-18T23:06:35.611Z,101996.31
2022-10-18T23:09:06.240Z,101996.84
2022-10-18T23:11:35.582Z,101982.72
2022-10-18T23:14:06.862Z,101899.31
2022-10-18T23:16:34.340Z,101843.75
2022-10-18T23:19:01.109Z,101980.53
2022-10-18T23:21:28.847Z,101872.78
2022-10-18T23:24:00.921Z,101912.75
2022-10-18T23:26:28.163Z,101861.41
2022-10-18T23:28:58.134Z,101968.97
2022-10-18T23:31:27.396Z,101827.28
2022-10-18T23:33:59.176Z,101983.97
2022-10-18T23:36:28.985Z,101954.91
2022-10-18T23:38:56.233Z,101930.94
2022-10-18T23:41:24.102Z,101901.72
2022-10-18T23:43:51.270Z,101958.22
2022-10-18T23:46:19.087Z,101946.69
2022-10-18T23:48:48.367Z,101984.34
2022-10-18T23:51:15.626Z,101950.69
2022-10-18T23:53:42.561Z,101857.13
2022-10-18T23:56:15.974Z,101958.84
2022-10-18T23:58:46.423Z,101987.19
